Aviation Digital Data Service (ADDS)

Output produced by METARs form (1218 UTC 07 October 2022)
found at http://www.aviationweather.gov/metar/data/
 
VTUU 071200Z 19005KT 130V210 8000 -TSRA FEW020CB SCT040 BKN060 24/24 Q1010 RERA NOSIG
VTUU 071100Z 35011KT 4000 TSRA FEW015CB SCT020 BKN040 23/23 Q1010 RERA NOSIG
VTUU 071000Z 34003KT 9999 FEW030TCU 31/25 Q1008 NOSIG
VTUU 070900Z 06005KT 020V090 9999 SCT035 32/24 Q1008 NOSIG
VTUU 070800Z 02007KT 350V050 9999 SCT035 32/25 Q1008 NOSIG
VTUU 070700Z VRB03KT 9999 SCT030 32/24 Q1009 NOSIG
VTUU 070600Z VRB02KT 9999 SCT030 32/24 Q1010 NOSIG
VTUU 070500Z 04006KT 330V110 9999 BKN030 32/24 Q1011 NOSIG
VTUU 070400Z VRB03KT 9999 BKN025 30/26 Q1012 NOSIG
VTUU 070300Z 13004KT 060V190 9999 BKN020 30/25 Q1013 NOSIG
VTUU 070200Z 11004KT 050V160 9999 BKN015 29/25 Q1013 NOSIG
VTUU 070100Z 07003KT 010V120 9999 SCT010 SCT020 27/26 Q1012 NOSIG
VTUU 070000Z 03003KT 360V090 9000 SCT006 BKN020 25/25 Q1012 NOSIG
VTUU 062300Z 07002KT 9999 FEW010 BKN020 25/25 Q1011 NOSIG
VTUU 062200Z VRB01KT CAVOK 25/25 Q1011 NOSIG
VTUU 062100Z 03004KT CAVOK 25/25 Q1011 NOSIG
VTUU 062000Z 00000KT CAVOK 25/25 Q1011 NOSIG
VTUU 061900Z 00000KT 9999 FEW020 25/25 Q1011 NOSIG
VTUU 061800Z 32003KT 9999 FEW040 26/26 Q1012 NOSIG
VTUU 061700Z 31003KT 9999 FEW040 26/26 Q1012 NOSIG
VTUU 061600Z 04003KT 9999 FEW040 26/26 Q1013 NOSIG
VTUU 061500Z 00000KT 9999 FEW045 26/26 Q1013 NOSIG
VTUU 061400Z 26003KT 9999 FEW045 27/26 Q1012 NOSIG
VTUU 061300Z 26005KT 9999 FEW045 27/26 Q1011 NOSIG
TAF VTUU 071100Z 0712/0812 07005KT 9999 SCT030 
     TEMPO 0712/0714 VRB15KT 4000 TSRA FEW018CB BKN020